Hovedside
METAR-TAF:

METAR-TAF

Lufthavner :

Västerås lufthavn

Västerås, Sverige

breddegrad: 59-35N, lengdegrad: 016-38E, høyde over havet: 6 m

Gjeldene værobservasjon

Denne rapporten ble laget for 15 minutter siden, klokken 13:20 UTC
Vind 10 kt fra Sør-sørvest
Temperatur 10°C
Luftfuktighet 29%
Trykk 1029 hPa
Sikt 10 km eller mer
ingen skyer under 1500 m og ingen bygeskyer

METAR: ESOW 221320Z 21010KT CAVOK 10/M07 Q1029 R19/09//95

Tid: 14:35 (13:35 UTC)

Varsel

Denne rapporten ble laget for 2 timer og 5 minutter siden, klokken 11:30 UTC
Varsel gyldig fra 22. klokken 12 UTC til 22. klokken 15 UTC
Vind 8 kt fra Sør-sørvest
Sikt 10 km eller mer
ingen skyer under 1500 m og ingen bygeskyer

TAF: ESOW 221130Z 2212/2215 20008KT CAVOK

Værobservasjoner og værvarsel for over 4000 flyplasser (METAR- og TAF-rapporter).

Tilgjengelige stasjoner er representert av de røde og gule prikkene på kartet.

Hold musepekeren over prikken for å se navnet på stasjonen.

Klikk så for å se værobservasjoner og -varsler.

For å forandre kartet kan du klikke på den grønne knappen med svart kryss for å zoome inn, på den grønne knappen med strek for å zoome ut, eller på de grønne pilene for å se tilstøtende kart.


METAR-TAF: